Justice — WDG2184 — position and weather

sailwx.info

Track history (hours):
 
Tides and Currents Weather Stations Pressure Air Temp Water Temp Dewpoint Dewpoint Depression Visibility Wind Speed Wind Dir Waves Ship Positions

Justice

Owner: Boston Towing & Transportation, Boston, MA. More information available from US FCC via Universal Licensing System and Coast Guard Vessel Documentation Center.

Last reported at 2016-Dec-03 17:33 UTC. Time now 2016-Dec-03 17:38 UTC.
Position N 42°21' W 071°02'.

Length 30 m; draft 5.8 m.

Type: Tug. MMSI: 367513010.

Date/timePositionNaut miles runAvg speedWind from/ knotsBaromVisibWave heightAir tempDewpointWater temp
2016-Dec-03 17:33N 42°21' W 071°02'2 1.6
2016-Dec-03 16:32N 42°23' W 071°03'1 1.5
2016-Dec-03 15:33N 42°24' W 071°01'2 2.0
2016-Dec-03 14:33N 42°22' W 071°03'3 3.4
2016-Dec-03 13:33N 42°20' W 070°60'5 4.7
2016-Dec-03 12:33N 42°16' W 070°56'2 1.9
2016-Dec-03 11:33N 42°15' W 070°58'5 5.3
2016-Dec-03 10:33N 42°20' W 070°58'3 2.7
2016-Dec-03 09:33N 42°21' W 071°01'0 0.0
2016-Dec-03 08:33N 42°21' W 071°01'1 0.7
2016-Dec-03 07:34N 42°20' W 071°01'3 3.0
2016-Dec-03 06:33N 42°23' W 071°01'1 0.6
2016-Dec-03 05:33N 42°23' W 071°02'0 0.2
2016-Dec-03 04:33N 42°23' W 071°02'0 0.3
2016-Dec-03 03:33N 42°23' W 071°02'1 0.8
2016-Dec-03 02:33N 42°23' W 071°03'0 0.0
2016-Dec-03 01:33N 42°23' W 071°03'0 0.0
2016-Dec-03 00:33N 42°23' W 071°03'0 0.0
2016-Dec-02 23:33N 42°23' W 071°03'0 0.0
2016-Dec-02 22:33N 42°23' W 071°03'0 0.0
2016-Dec-02 21:33N 42°23' W 071°03'0 0.0
2016-Dec-02 20:33N 42°23' W 071°03'0 0.0
2016-Dec-02 19:18N 42°23' W 071°03'0 0.0
2016-Dec-02 18:15N 42°23' W 071°03'2 1.2
2016-Dec-02 16:33N 42°21' W 071°01'6 5.8
2016-Dec-02 15:33N 42°17' W 070°56'3 3.1
2016-Dec-02 14:33N 42°14' W 070°58'3 2.9
2016-Dec-02 13:33N 42°17' W 070°56'4 3.9
2016-Dec-02 12:33N 42°20' W 070°57'4 3.7
2016-Dec-02 11:33N 42°22' W 071°02'2 1.6
2016-Dec-02 10:34N 42°23' W 071°03'0 0.3
2016-Dec-02 09:33N 42°23' W 071°03'0 0.0
2016-Dec-02 08:33N 42°23' W 071°03'0 0.4
2016-Dec-02 07:33N 42°22' W 071°03'1 1.2
2016-Dec-02 06:33N 42°23' W 071°04'0 0.0
2016-Dec-02 05:30N 42°23' W 071°04'1 1.4
2016-Dec-02 04:33N 42°22' W 071°03'4 4.1
2016-Dec-02 03:33N 42°21' W 070°58'0 0.0
2016-Dec-02 02:33N 42°21' W 070°58'0 0.0
2016-Dec-02 01:33N 42°21' W 070°58'5 5.0
2016-Dec-02 00:33N 42°24' W 070°52'4 4.1
2016-Dec-01 23:33N 42°21' W 070°56'5 5.1
2016-Dec-01 22:33N 42°23' W 071°03'0 0.0
2016-Dec-01 21:33N 42°23' W 071°03'0 0.0
2016-Dec-01 20:33N 42°23' W 071°03'0 0.0
2016-Dec-01 19:33N 42°23' W 071°03'1 1.0
2016-Dec-01 18:33N 42°23' W 071°04'1 1.0
2016-Dec-01 17:33N 42°23' W 071°03'0 0.0
2016-Dec-01 16:33N 42°23' W 071°03'0 0.0
2016-Dec-01 15:33N 42°23' W 071°03'0 0.0
2016-Dec-01 14:33N 42°23' W 071°03'0 0.4
2016-Dec-01 13:33N 42°22' W 071°03'0 0.4
2016-Dec-01 12:33N 42°22' W 071°03'1 0.5
2016-Dec-01 11:33N 42°22' W 071°02'1 1.1
2016-Dec-01 10:33N 42°23' W 071°03'0 0.0
2016-Dec-01 09:33N 42°23' W 071°03'0 0.0
2016-Dec-01 08:33N 42°23' W 071°03'0 0.0
2016-Dec-01 07:33N 42°23' W 071°03'1 1.4
2016-Dec-01 06:33N 42°24' W 071°01'1 1.4
2016-Dec-01 05:33N 42°23' W 071°03'0 0.0
2016-Dec-01 04:33N 42°23' W 071°03'0 0.0
2016-Dec-01 03:33N 42°23' W 071°03'0 0.0
2016-Dec-01 02:33N 42°23' W 071°03'0 0.2
2016-Dec-01 01:34N 42°23' W 071°03'0 0.2
2016-Dec-01 00:33N 42°23' W 071°03'0 0.0
2016-Nov-30 23:33N 42°23' W 071°03'0 0.0
2016-Nov-30 22:33N 42°23' W 071°03'0 0.0
2016-Nov-30 21:33N 42°23' W 071°03'2 1.7
2016-Nov-30 20:34N 42°24' W 071°01'2 1.7
2016-Nov-30 19:33N 42°23' W 071°03'0 0.1
2016-Nov-30 18:32N 42°23' W 071°03'0 0.0
2016-Nov-30 17:33N 42°23' W 071°03'0 0.0
2016-Nov-30 16:33N 42°23' W 071°03'0 0.0
2016-Nov-30 15:33N 42°23' W 071°03'0 0.0
2016-Nov-30 14:33N 42°23' W 071°03'0 0.0
2016-Nov-30 13:33N 42°23' W 071°03'0 0.0
2016-Nov-30 12:33N 42°23' W 071°03'0 0.0
2016-Nov-30 11:33N 42°23' W 071°03'0 0.0
2016-Nov-30 10:33N 42°23' W 071°03'0 0.0
2016-Nov-30 09:33N 42°23' W 071°03'0 0.0
2016-Nov-30 08:33N 42°23' W 071°03'0 0.0
2016-Nov-30 07:33N 42°23' W 071°03'0 0.0
2016-Nov-30 06:33N 42°23' W 071°03'0 0.0
2016-Nov-30 04:33N 42°23' W 071°03'0 0.0
2016-Nov-30 03:33N 42°23' W 071°03'2 2.4
2016-Nov-30 02:33N 42°21' W 071°01'0 0.4
2016-Nov-30 01:33N 42°21' W 071°02'0 0.0
2016-Nov-30 00:33N 42°21' W 071°02'2 2.2
2016-Nov-29 23:33N 42°23' W 071°03'1 1.0
2016-Nov-29 22:34N 42°23' W 071°02'1 0.8
2016-Nov-29 21:34N 42°23' W 071°03'0 0.0
2016-Nov-29 20:33N 42°23' W 071°03'0 0.0
2016-Nov-29 19:33N 42°23' W 071°03'0 0.0
2016-Nov-29 18:33N 42°23' W 071°03'2 2.2
2016-Nov-29 17:34N 42°21' W 071°02'0 0.4
2016-Nov-29 16:33N 42°21' W 071°01'5 4.5
2016-Nov-29 15:34N 42°22' W 070°55'6 6.1
2016-Nov-29 14:34N 42°23' W 070°47'2 2.4
2016-Nov-29 13:33N 42°23' W 070°50'8 8.4
2016-Nov-29 12:34N 42°21' W 071°01'2 2.3
2016-Nov-29 11:33N 42°23' W 071°03'1 0.5
2016-Nov-29 10:30N 42°23' W 071°03'1 0.5
2016-Nov-29 09:34N 42°23' W 071°03'0 0.0
2016-Nov-29 08:33N 42°23' W 071°03'0 0.0
2016-Nov-29 07:33N 42°23' W 071°03'0 0.0
2016-Nov-29 06:33N 42°23' W 071°03'0 0.2
2016-Nov-29 05:33N 42°23' W 071°03'0 0.2
2016-Nov-29 04:33N 42°23' W 071°03'2 2.5
2016-Nov-29 03:34N 42°21' W 071°01'1 0.7
2016-Nov-29 02:33N 42°20' W 071°00'3 3.1
2016-Nov-29 01:34N 42°23' W 071°01'1 0.9
2016-Nov-29 00:33N 42°23' W 071°03'1 1.0
2016-Nov-28 23:33N 42°22' W 071°03'2 2.2
2016-Nov-28 22:34N 42°20' W 071°00'0 0.3
2016-Nov-28 21:33N 42°21' W 071°01'3 2.5
2016-Nov-28 20:33N 42°23' W 071°03'0 0.0
2016-Nov-28 19:34N 42°23' W 071°03'0 0.0
2016-Nov-28 18:33N 42°23' W 071°03'0 0.0
2016-Nov-28 17:33N 42°23' W 071°03'0 0.0
2016-Nov-28 16:33N 42°23' W 071°03'0 0.4
2016-Nov-28 15:33N 42°22' W 071°03'7 7.4
2016-Nov-28 14:33N 42°17' W 070°56'3 2.9
2016-Nov-28 13:34N 42°15' W 070°59'5 5.0
2016-Nov-28 12:34N 42°19' W 070°55'5 4.9
2016-Nov-28 11:34N 42°21' W 071°01'2 2.5
2016-Nov-28 10:33N 42°23' W 071°03'0 0.0
2016-Nov-28 09:33N 42°23' W 071°03'1 0.7
2016-Nov-28 08:33N 42°23' W 071°02'1 0.7
2016-Nov-28 07:33N 42°24' W 071°01'1 1.4
2016-Nov-28 06:34N 42°23' W 071°03'0 0.1
2016-Nov-28 05:33N 42°23' W 071°03'0 0.0
2016-Nov-28 04:33N 42°23' W 071°03'0 0.0
2016-Nov-28 03:33N 42°23' W 071°03'2 2.5
2016-Nov-28 02:34N 42°21' W 071°01'2 1.7
2016-Nov-28 01:34N 42°22' W 071°03'1 1.0
2016-Nov-28 00:33N 42°23' W 071°03'0 0.0
2016-Nov-27 23:33N 42°23' W 071°03'0 0.0
2016-Nov-27 22:33N 42°23' W 071°03'0 0.0
2016-Nov-27 21:33N 42°23' W 071°03'0 0.0
2016-Nov-27 20:33N 42°23' W 071°03'0 0.0
2016-Nov-27 19:33N 42°23' W 071°03'0 0.0
2016-Nov-27 18:33N 42°23' W 071°03'0 0.0
2016-Nov-27 17:33N 42°23' W 071°03'0 0.0
2016-Nov-27 16:33N 42°23' W 071°03'0 0.0
2016-Nov-27 15:33N 42°23' W 071°03'0 0.0
2016-Nov-27 14:33N 42°23' W 071°03'3 3.2
2016-Nov-27 13:33N 42°20' W 071°00'5 5.2
2016-Nov-27 12:34N 42°16' W 070°56'2 2.2
2016-Nov-27 11:34N 42°14' W 070°58'6 5.8
2016-Nov-27 10:34N 42°20' W 070°58'5 5.3
2016-Nov-27 09:33N 42°23' W 071°04'0 0.2
2016-Nov-27 08:34N 42°23' W 071°04'1 0.9
2016-Nov-27 07:34N 42°23' W 071°03'2 1.7
2016-Nov-27 06:33N 42°24' W 071°01'1 1.5
2016-Nov-27 05:33N 42°23' W 071°03'0 0.2
2016-Nov-27 04:33N 42°23' W 071°03'2 2.5
2016-Nov-27 03:34N 42°21' W 071°01'1 1.0
2016-Nov-27 02:33N 42°20' W 070°60'3 3.4
2016-Nov-27 01:33N 42°23' W 071°03'0 0.0
2016-Nov-27 00:33N 42°23' W 071°03'0 0.0
2016-Nov-26 23:33N 42°23' W 071°03'0 0.0
2016-Nov-26 22:33N 42°23' W 071°03'0 0.0
2016-Nov-26 21:34N 42°23' W 071°03'0 0.0
2016-Nov-26 20:33N 42°23' W 071°03'0 0.0
2016-Nov-26 19:34N 42°23' W 071°03'0 0.0
2016-Nov-26 18:33N 42°23' W 071°03'0 0.0
2016-Nov-26 17:33N 42°23' W 071°03'0 0.0
2016-Nov-26 16:33N 42°23' W 071°03'0 0.0
2016-Nov-26 15:33N 42°23' W 071°03'0 0.5
2016-Nov-26 14:34N 42°23' W 071°02'0 0.0
2016-Nov-26 13:33N 42°23' W 071°02'2 1.5
2016-Nov-26 12:33N 42°22' W 071°03'0 0.1
2016-Nov-26 11:34N 42°22' W 071°03'3 2.5
2016-Nov-26 10:33N 42°24' W 071°01'2 1.7
2016-Nov-26 09:33N 42°23' W 071°03'0 0.0
2016-Nov-26 08:33N 42°23' W 071°03'0 0.0
2016-Nov-26 07:33N 42°23' W 071°03'0 0.0
2016-Nov-26 06:34N 42°23' W 071°03'0 0.0
2016-Nov-26 05:33N 42°23' W 071°03'0 0.2
2016-Nov-26 04:33N 42°23' W 071°03'1 0.8
2016-Nov-26 03:34N 42°23' W 071°02'1 0.8
2016-Nov-26 02:33N 42°23' W 071°03'0 0.0
2016-Nov-26 01:33N 42°23' W 071°03'0 0.0
2016-Nov-26 00:33N 42°23' W 071°03'0 0.0
2016-Nov-25 23:33N 42°23' W 071°03'0 0.0
2016-Nov-25 22:33N 42°23' W 071°03'0 0.0
2016-Nov-25 21:33N 42°23' W 071°03'0 0.0
2016-Nov-25 20:33N 42°23' W 071°03'0 0.0
2016-Nov-25 19:33N 42°23' W 071°03'1 0.5
2016-Nov-25 18:33N 42°23' W 071°03'2 1.9
2016-Nov-25 17:34N 42°24' W 071°01'2 1.6
2016-Nov-25 16:33N 42°23' W 071°03'0 0.0
2016-Nov-25 15:33N 42°23' W 071°03'0 0.0
2016-Nov-25 14:32N 42°23' W 071°03'0 0.0
2016-Nov-25 13:32N 42°23' W 071°03'0 0.0
2016-Nov-25 12:33N 42°23' W 071°03'0 0.0
2016-Nov-25 11:33N 42°23' W 071°03'0 0.0
2016-Nov-25 10:33N 42°23' W 071°03'1 0.6
2016-Nov-25 09:34N 42°23' W 071°03'2 2.2
2016-Nov-25 08:34N 42°21' W 071°02'2 1.8
2016-Nov-25 07:33N 42°23' W 071°03'0 0.0
2016-Nov-25 06:33N 42°23' W 071°03'0 0.0
2016-Nov-25 05:34N 42°23' W 071°03'0 0.0
2016-Nov-25 04:34N 42°23' W 071°03'0 0.0
2016-Nov-25 03:32N 42°23' W 071°03'0 0.0
2016-Nov-25 02:33N 42°23' W 071°03'1 0.8
2016-Nov-25 01:33N 42°23' W 071°03'1 0.8
2016-Nov-25 00:32N 42°23' W 071°03'0 0.0
2016-Nov-24 23:33N 42°23' W 071°03'0 0.0
2016-Nov-24 22:33N 42°23' W 071°03'0 0.0
2016-Nov-24 21:33N 42°23' W 071°03'0 0.0
2016-Nov-24 20:33N 42°23' W 071°03'2 1.6
2016-Nov-24 19:34N 42°24' W 071°01'0 0.3
2016-Nov-24 18:33N 42°24' W 071°01'1 0.7
2016-Nov-24 17:33N 42°23' W 071°02'1 0.7
2016-Nov-24 16:33N 42°23' W 071°03'2 1.5
2016-Nov-24 15:34N 42°21' W 071°02'7 7.0
2016-Nov-24 14:33N 42°16' W 070°56'2 1.6
2016-Nov-24 13:33N 42°15' W 070°58'5 4.9
2016-Nov-24 12:34N 42°19' W 070°56'7 6.7
2016-Nov-24 11:33N 42°23' W 071°03'1 0.6
2016-Nov-24 10:33N 42°23' W 071°03'2 1.5
2016-Nov-24 09:33N 42°24' W 071°01'2 1.6
2016-Nov-24 08:33N 42°23' W 071°03'0 0.0
2016-Nov-24 07:33N 42°23' W 071°03'0 0.0
2016-Nov-24 06:33N 42°23' W 071°03'0 0.0
2016-Nov-24 05:33N 42°23' W 071°03'0 0.0
2016-Nov-24 04:34N 42°23' W 071°03'0 0.0
2016-Nov-24 03:33N 42°23' W 071°03'1 0.7
2016-Nov-24 02:33N 42°23' W 071°03'0 0.2
2016-Nov-24 01:18N 42°23' W 071°04'1 1.1
2016-Nov-24 00:33N 42°23' W 071°03'0 0.0
2016-Nov-23 23:32N 42°23' W 071°03'0 0.2
2016-Nov-23 22:33N 42°23' W 071°03'0 0.3
2016-Nov-23 21:33N 42°23' W 071°03'1 1.1
2016-Nov-23 20:34N 42°22' W 071°03'1 1.1
2016-Nov-23 19:33N 42°23' W 071°03'0 0.0
2016-Nov-23 18:33N 42°23' W 071°03'  
Track history (hours):
 
Tides and Currents Weather Stations Pressure Air Temp Water Temp Dewpoint Dewpoint Depression Visibility Wind Speed Wind Dir Waves Ship Positions

Justice

Owner: Boston Towing & Transportation, Boston, MA. More information available from US FCC via Universal Licensing System and Coast Guard Vessel Documentation Center.

Last reported at 2016-Dec-03 17:33 UTC. Time now 2016-Dec-03 17:38 UTC.
Position N 42°21' W 071°02'.

Length 30 m; draft 5.8 m.

Type: Tug. MMSI: 367513010.

Date/timePositionNaut miles runAvg speedWind from/ knotsBaromVisibWave heightAir tempDewpointWater temp
2016-Dec-03 17:33N 42°21' W 071°02'2 1.6
2016-Dec-03 16:32N 42°23' W 071°03'1 1.5
2016-Dec-03 15:33N 42°24' W 071°01'2 2.0
2016-Dec-03 14:33N 42°22' W 071°03'3 3.4
2016-Dec-03 13:33N 42°20' W 070°60'5 4.7
2016-Dec-03 12:33N 42°16' W 070°56'2 1.9
2016-Dec-03 11:33N 42°15' W 070°58'5 5.3
2016-Dec-03 10:33N 42°20' W 070°58'3 2.7
2016-Dec-03 09:33N 42°21' W 071°01'0 0.0
2016-Dec-03 08:33N 42°21' W 071°01'1 0.7
2016-Dec-03 07:34N 42°20' W 071°01'3 3.0
2016-Dec-03 06:33N 42°23' W 071°01'1 0.6
2016-Dec-03 05:33N 42°23' W 071°02'0 0.2
2016-Dec-03 04:33N 42°23' W 071°02'0 0.3
2016-Dec-03 03:33N 42°23' W 071°02'1 0.8
2016-Dec-03 02:33N 42°23' W 071°03'0 0.0
2016-Dec-03 01:33N 42°23' W 071°03'0 0.0
2016-Dec-03 00:33N 42°23' W 071°03'0 0.0
2016-Dec-02 23:33N 42°23' W 071°03'0 0.0
2016-Dec-02 22:33N 42°23' W 071°03'0 0.0
2016-Dec-02 21:33N 42°23' W 071°03'0 0.0
2016-Dec-02 20:33N 42°23' W 071°03'0 0.0
2016-Dec-02 19:18N 42°23' W 071°03'0 0.0
2016-Dec-02 18:15N 42°23' W 071°03'2 1.2
2016-Dec-02 16:33N 42°21' W 071°01'6 5.8
2016-Dec-02 15:33N 42°17' W 070°56'3 3.1
2016-Dec-02 14:33N 42°14' W 070°58'3 2.9
2016-Dec-02 13:33N 42°17' W 070°56'4 3.9
2016-Dec-02 12:33N 42°20' W 070°57'4 3.7
2016-Dec-02 11:33N 42°22' W 071°02'2 1.6
2016-Dec-02 10:34N 42°23' W 071°03'0 0.3
2016-Dec-02 09:33N 42°23' W 071°03'0 0.0
2016-Dec-02 08:33N 42°23' W 071°03'0 0.4
2016-Dec-02 07:33N 42°22' W 071°03'1 1.2
2016-Dec-02 06:33N 42°23' W 071°04'0 0.0
2016-Dec-02 05:30N 42°23' W 071°04'1 1.4
2016-Dec-02 04:33N 42°22' W 071°03'4 4.1
2016-Dec-02 03:33N 42°21' W 070°58'0 0.0
2016-Dec-02 02:33N 42°21' W 070°58'0 0.0
2016-Dec-02 01:33N 42°21' W 070°58'5 5.0
2016-Dec-02 00:33N 42°24' W 070°52'4 4.1
2016-Dec-01 23:33N 42°21' W 070°56'5 5.1
2016-Dec-01 22:33N 42°23' W 071°03'0 0.0
2016-Dec-01 21:33N 42°23' W 071°03'0 0.0
2016-Dec-01 20:33N 42°23' W 071°03'0 0.0
2016-Dec-01 19:33N 42°23' W 071°03'1 1.0
2016-Dec-01 18:33N 42°23' W 071°04'1 1.0
2016-Dec-01 17:33N 42°23' W 071°03'0 0.0
2016-Dec-01 16:33N 42°23' W 071°03'0 0.0
2016-Dec-01 15:33N 42°23' W 071°03'0 0.0
2016-Dec-01 14:33N 42°23' W 071°03'0 0.4
2016-Dec-01 13:33N 42°22' W 071°03'0 0.4
2016-Dec-01 12:33N 42°22' W 071°03'1 0.5
2016-Dec-01 11:33N 42°22' W 071°02'1 1.1
2016-Dec-01 10:33N 42°23' W 071°03'0 0.0
2016-Dec-01 09:33N 42°23' W 071°03'0 0.0
2016-Dec-01 08:33N 42°23' W 071°03'0 0.0
2016-Dec-01 07:33N 42°23' W 071°03'1 1.4
2016-Dec-01 06:33N 42°24' W 071°01'1 1.4
2016-Dec-01 05:33N 42°23' W 071°03'0 0.0
2016-Dec-01 04:33N 42°23' W 071°03'0 0.0
2016-Dec-01 03:33N 42°23' W 071°03'0 0.0
2016-Dec-01 02:33N 42°23' W 071°03'0 0.2
2016-Dec-01 01:34N 42°23' W 071°03'0 0.2
2016-Dec-01 00:33N 42°23' W 071°03'0 0.0
2016-Nov-30 23:33N 42°23' W 071°03'0 0.0
2016-Nov-30 22:33N 42°23' W 071°03'0 0.0
2016-Nov-30 21:33N 42°23' W 071°03'2 1.7
2016-Nov-30 20:34N 42°24' W 071°01'2 1.7
2016-Nov-30 19:33N 42°23' W 071°03'0 0.1
2016-Nov-30 18:32N 42°23' W 071°03'0 0.0
2016-Nov-30 17:33N 42°23' W 071°03'0 0.0
2016-Nov-30 16:33N 42°23' W 071°03'0 0.0
2016-Nov-30 15:33N 42°23' W 071°03'0 0.0
2016-Nov-30 14:33N 42°23' W 071°03'0 0.0
2016-Nov-30 13:33N 42°23' W 071°03'0 0.0
2016-Nov-30 12:33N 42°23' W 071°03'0 0.0
2016-Nov-30 11:33N 42°23' W 071°03'0 0.0
2016-Nov-30 10:33N 42°23' W 071°03'0 0.0
2016-Nov-30 09:33N 42°23' W 071°03'0 0.0
2016-Nov-30 08:33N 42°23' W 071°03'0 0.0
2016-Nov-30 07:33N 42°23' W 071°03'0 0.0
2016-Nov-30 06:33N 42°23' W 071°03'0 0.0
2016-Nov-30 04:33N 42°23' W 071°03'0 0.0
2016-Nov-30 03:33N 42°23' W 071°03'2 2.4
2016-Nov-30 02:33N 42°21' W 071°01'0 0.4
2016-Nov-30 01:33N 42°21' W 071°02'0 0.0
2016-Nov-30 00:33N 42°21' W 071°02'2 2.2
2016-Nov-29 23:33N 42°23' W 071°03'1 1.0
2016-Nov-29 22:34N 42°23' W 071°02'1 0.8
2016-Nov-29 21:34N 42°23' W 071°03'0 0.0
2016-Nov-29 20:33N 42°23' W 071°03'0 0.0
2016-Nov-29 19:33N 42°23' W 071°03'0 0.0
2016-Nov-29 18:33N 42°23' W 071°03'2 2.2
2016-Nov-29 17:34N 42°21' W 071°02'0 0.4
2016-Nov-29 16:33N 42°21' W 071°01'5 4.5
2016-Nov-29 15:34N 42°22' W 070°55'6 6.1
2016-Nov-29 14:34N 42°23' W 070°47'2 2.4
2016-Nov-29 13:33N 42°23' W 070°50'8 8.4
2016-Nov-29 12:34N 42°21' W 071°01'2 2.3
2016-Nov-29 11:33N 42°23' W 071°03'1 0.5
2016-Nov-29 10:30N 42°23' W 071°03'1 0.5
2016-Nov-29 09:34N 42°23' W 071°03'0 0.0
2016-Nov-29 08:33N 42°23' W 071°03'0 0.0
2016-Nov-29 07:33N 42°23' W 071°03'0 0.0
2016-Nov-29 06:33N 42°23' W 071°03'0 0.2
2016-Nov-29 05:33N 42°23' W 071°03'0 0.2
2016-Nov-29 04:33N 42°23' W 071°03'2 2.5
2016-Nov-29 03:34N 42°21' W 071°01'1 0.7
2016-Nov-29 02:33N 42°20' W 071°00'3 3.1
2016-Nov-29 01:34N 42°23' W 071°01'1 0.9
2016-Nov-29 00:33N 42°23' W 071°03'1 1.0
2016-Nov-28 23:33N 42°22' W 071°03'2 2.2
2016-Nov-28 22:34N 42°20' W 071°00'0 0.3
2016-Nov-28 21:33N 42°21' W 071°01'3 2.5
2016-Nov-28 20:33N 42°23' W 071°03'0 0.0
2016-Nov-28 19:34N 42°23' W 071°03'0 0.0
2016-Nov-28 18:33N 42°23' W 071°03'0 0.0
2016-Nov-28 17:33N 42°23' W 071°03'0 0.0
2016-Nov-28 16:33N 42°23' W 071°03'0 0.4
2016-Nov-28 15:33N 42°22' W 071°03'7 7.4
2016-Nov-28 14:33N 42°17' W 070°56'3 2.9
2016-Nov-28 13:34N 42°15' W 070°59'5 5.0
2016-Nov-28 12:34N 42°19' W 070°55'5 4.9
2016-Nov-28 11:34N 42°21' W 071°01'2 2.5
2016-Nov-28 10:33N 42°23' W 071°03'0 0.0
2016-Nov-28 09:33N 42°23' W 071°03'1 0.7
2016-Nov-28 08:33N 42°23' W 071°02'1 0.7
2016-Nov-28 07:33N 42°24' W 071°01'1 1.4
2016-Nov-28 06:34N 42°23' W 071°03'0 0.1
2016-Nov-28 05:33N 42°23' W 071°03'0 0.0
2016-Nov-28 04:33N 42°23' W 071°03'0 0.0
2016-Nov-28 03:33N 42°23' W 071°03'2 2.5
2016-Nov-28 02:34N 42°21' W 071°01'2 1.7
2016-Nov-28 01:34N 42°22' W 071°03'1 1.0
2016-Nov-28 00:33N 42°23' W 071°03'0 0.0
2016-Nov-27 23:33N 42°23' W 071°03'0 0.0
2016-Nov-27 22:33N 42°23' W 071°03'0 0.0
2016-Nov-27 21:33N 42°23' W 071°03'0 0.0
2016-Nov-27 20:33N 42°23' W 071°03'0 0.0
2016-Nov-27 19:33N 42°23' W 071°03'0 0.0
2016-Nov-27 18:33N 42°23' W 071°03'0 0.0
2016-Nov-27 17:33N 42°23' W 071°03'0 0.0
2016-Nov-27 16:33N 42°23' W 071°03'0 0.0
2016-Nov-27 15:33N 42°23' W 071°03'0 0.0
2016-Nov-27 14:33N 42°23' W 071°03'3 3.2
2016-Nov-27 13:33N 42°20' W 071°00'5 5.2
2016-Nov-27 12:34N 42°16' W 070°56'2 2.2
2016-Nov-27 11:34N 42°14' W 070°58'6 5.8
2016-Nov-27 10:34N 42°20' W 070°58'5 5.3
2016-Nov-27 09:33N 42°23' W 071°04'0 0.2
2016-Nov-27 08:34N 42°23' W 071°04'1 0.9
2016-Nov-27 07:34N 42°23' W 071°03'2 1.7
2016-Nov-27 06:33N 42°24' W 071°01'1 1.5
2016-Nov-27 05:33N 42°23' W 071°03'0 0.2
2016-Nov-27 04:33N 42°23' W 071°03'2 2.5
2016-Nov-27 03:34N 42°21' W 071°01'1 1.0
2016-Nov-27 02:33N 42°20' W 070°60'3 3.4
2016-Nov-27 01:33N 42°23' W 071°03'0 0.0
2016-Nov-27 00:33N 42°23' W 071°03'0 0.0
2016-Nov-26 23:33N 42°23' W 071°03'0 0.0
2016-Nov-26 22:33N 42°23' W 071°03'0 0.0
2016-Nov-26 21:34N 42°23' W 071°03'0 0.0
2016-Nov-26 20:33N 42°23' W 071°03'0 0.0
2016-Nov-26 19:34N 42°23' W 071°03'0 0.0
2016-Nov-26 18:33N 42°23' W 071°03'0 0.0
2016-Nov-26 17:33N 42°23' W 071°03'0 0.0
2016-Nov-26 16:33N 42°23' W 071°03'0 0.0
2016-Nov-26 15:33N 42°23' W 071°03'0 0.5
2016-Nov-26 14:34N 42°23' W 071°02'0 0.0
2016-Nov-26 13:33N 42°23' W 071°02'2 1.5
2016-Nov-26 12:33N 42°22' W 071°03'0 0.1
2016-Nov-26 11:34N 42°22' W 071°03'3 2.5
2016-Nov-26 10:33N 42°24' W 071°01'2 1.7
2016-Nov-26 09:33N 42°23' W 071°03'0 0.0
2016-Nov-26 08:33N 42°23' W 071°03'0 0.0
2016-Nov-26 07:33N 42°23' W 071°03'0 0.0
2016-Nov-26 06:34N 42°23' W 071°03'0 0.0
2016-Nov-26 05:33N 42°23' W 071°03'0 0.2
2016-Nov-26 04:33N 42°23' W 071°03'1 0.8
2016-Nov-26 03:34N 42°23' W 071°02'1 0.8
2016-Nov-26 02:33N 42°23' W 071°03'0 0.0
2016-Nov-26 01:33N 42°23' W 071°03'0 0.0
2016-Nov-26 00:33N 42°23' W 071°03'0 0.0
2016-Nov-25 23:33N 42°23' W 071°03'0 0.0
2016-Nov-25 22:33N 42°23' W 071°03'0 0.0
2016-Nov-25 21:33N 42°23' W 071°03'0 0.0
2016-Nov-25 20:33N 42°23' W 071°03'0 0.0
2016-Nov-25 19:33N 42°23' W 071°03'1 0.5
2016-Nov-25 18:33N 42°23' W 071°03'2 1.9
2016-Nov-25 17:34N 42°24' W 071°01'2 1.6
2016-Nov-25 16:33N 42°23' W 071°03'0 0.0
2016-Nov-25 15:33N 42°23' W 071°03'0 0.0
2016-Nov-25 14:32N 42°23' W 071°03'0 0.0
2016-Nov-25 13:32N 42°23' W 071°03'0 0.0
2016-Nov-25 12:33N 42°23' W 071°03'0 0.0
2016-Nov-25 11:33N 42°23' W 071°03'0 0.0
2016-Nov-25 10:33N 42°23' W 071°03'1 0.6
2016-Nov-25 09:34N 42°23' W 071°03'2 2.2
2016-Nov-25 08:34N 42°21' W 071°02'2 1.8
2016-Nov-25 07:33N 42°23' W 071°03'0 0.0
2016-Nov-25 06:33N 42°23' W 071°03'0 0.0
2016-Nov-25 05:34N 42°23' W 071°03'0 0.0
2016-Nov-25 04:34N 42°23' W 071°03'0 0.0
2016-Nov-25 03:32N 42°23' W 071°03'0 0.0
2016-Nov-25 02:33N 42°23' W 071°03'1 0.8
2016-Nov-25 01:33N 42°23' W 071°03'1 0.8
2016-Nov-25 00:32N 42°23' W 071°03'0 0.0
2016-Nov-24 23:33N 42°23' W 071°03'0 0.0
2016-Nov-24 22:33N 42°23' W 071°03'0 0.0
2016-Nov-24 21:33N 42°23' W 071°03'0 0.0
2016-Nov-24 20:33N 42°23' W 071°03'2 1.6
2016-Nov-24 19:34N 42°24' W 071°01'0 0.3
2016-Nov-24 18:33N 42°24' W 071°01'1 0.7
2016-Nov-24 17:33N 42°23' W 071°02'1 0.7
2016-Nov-24 16:33N 42°23' W 071°03'2 1.5
2016-Nov-24 15:34N 42°21' W 071°02'7 7.0
2016-Nov-24 14:33N 42°16' W 070°56'2 1.6
2016-Nov-24 13:33N 42°15' W 070°58'5 4.9
2016-Nov-24 12:34N 42°19' W 070°56'7 6.7
2016-Nov-24 11:33N 42°23' W 071°03'1 0.6
2016-Nov-24 10:33N 42°23' W 071°03'2 1.5
2016-Nov-24 09:33N 42°24' W 071°01'2 1.6
2016-Nov-24 08:33N 42°23' W 071°03'0 0.0
2016-Nov-24 07:33N 42°23' W 071°03'0 0.0
2016-Nov-24 06:33N 42°23' W 071°03'0 0.0
2016-Nov-24 05:33N 42°23' W 071°03'0 0.0
2016-Nov-24 04:34N 42°23' W 071°03'0 0.0
2016-Nov-24 03:33N 42°23' W 071°03'1 0.7
2016-Nov-24 02:33N 42°23' W 071°03'0 0.2
2016-Nov-24 01:18N 42°23' W 071°04'1 1.1
2016-Nov-24 00:33N 42°23' W 071°03'0 0.0
2016-Nov-23 23:32N 42°23' W 071°03'0 0.2
2016-Nov-23 22:33N 42°23' W 071°03'0 0.3
2016-Nov-23 21:33N 42°23' W 071°03'1 1.1
2016-Nov-23 20:34N 42°22' W 071°03'1 1.1
2016-Nov-23 19:33N 42°23' W 071°03'0 0.0
2016-Nov-23 18:33N 42°23' W 071°03'  

Dump ship's entire track history